Impacts METAR Board INFO
IDs:

KJFK - New York/Kennedy Int, NY, US

Updated at: 2051 UTC 11 Dec 2017
Potential Impact None Slight Moderate High
Time11/08Z 11/09Z 11/10Z 11/11Z 11/12Z 11/13Z 11/14Z 11/15Z 11/16Z 11/17Z 11/18Z 11/19Z 11/20Z
VIS10 10 10 9 10 10 10 10 10 10 10 10 10
CIG85 80 41 46 70 70 -- -- -- -- -- 250 250
CoverOVCOVCOVCOVCBKNBKNSCTFEWFEWSCTSCTBKNBKN
FltCatVFRVFRVFRVFRVFRVFRVFRVFRVFRVFRVFRVFRVFR
WX-------SN------------------
WDir250250250250240240260260290290260290290
WSpd13 18 21 13 13 11 12 10 14 8 9 7 8
WGst-- -- 28 -- -- -- -- -- -- -- -- -- --
Raw hourly METARs
KJFK 110751Z 25013KT 10SM OVC085 02/M03 A3000 RMK AO2 SLP159 T00221033
KJFK 110851Z 25018KT 10SM OVC080 02/M04 A3001 RMK AO2 SLP160 T00221039 55007
KJFK 110951Z 25021G28KT 10SM OVC041 01/M03 A3002 RMK AO2 PK WND 25028/0945 SLP166 T00111033
KJFK 111051Z 25013KT 9SM -SN OVC046 01/M02 A3004 RMK AO2 SNB36 SLP170 P0000 T00061022
KJFK 111151Z 24013KT 10SM FEW037 BKN070 BKN220 01/M02 A3004 RMK AO2 SNE12 SLP171 931000 4/002 P0000 60000 T00061017 10022 20006 51010
KJFK 111251Z 24011KT 10SM FEW035 BKN070 BKN220 01/M02 A3004 RMK AO2 SLP173 T00111017
KJFK 111351Z 26012KT 10SM FEW035 SCT070 SCT200 01/M01 A3005 RMK AO2 SLP176 T00111011
KJFK 111451Z 26010KT 10SM FEW035 FEW070 02/M03 A3005 RMK AO2 SLP176 T00221028 51005
KJFK 111551Z 29014KT 10SM FEW037 FEW070 03/M04 A3006 RMK AO2 SLP177 T00281039
KJFK 111651Z 29008KT 10SM FEW038 SCT250 03/M04 A3003 RMK AO2 SLP168 T00331044
KJFK 111751Z 26009KT 10SM FEW038 SCT250 04/M04 A3000 RMK AO2 SLP160 4/001 T00441039 10044 20006 58016
KJFK 111851Z 29007KT 240V310 10SM FEW043 BKN250 05/M04 A3000 RMK AO2 SLP158 T00501044
KJFK 111951Z 29008KT 10SM FEW050 FEW200 BKN250 04/M05 A3001 RMK AO2 SLP161 T00441050